AAL724 KCLT-EIDW
Flight info
| Callsign | AAL724 |
|---|---|
| Flight time | N/A |
| Altitude | 39000 |
| Route | BARMY5 RDU DCT NOWAE Q87 GEARS DCT BBOBO Q22 FOXWD DCT MIILS N739B LOMSI/M083F400 DCT 55N050W 56N040W 56N030W 55N020W DCT DOGAL DCT BEXET/N0484F410 DCT DEVOL DCT OLAPO OLAPO4L |
| Aircraft | B772/H-SDE2E3FGHIJ5LORVWXY/LB1D1 |
Departure
| Time | N/A |
|---|---|
| Airport | Charlotte Douglas International Airport (KCLT) |
Arrival
| Time | 2026-05-01 10:08 |
|---|---|
| Airport | Dublin Airport (EIDW) |
| Time | Latitude | Longitude | Altitude | Speed | Heading |
|---|---|---|---|---|---|
| 2026-05-01 07:23 | 56.01259 | -39.68344 | 40398 ft | 511 kts | 86° |
| 2026-05-01 07:24 | 56.01944 | -39.49328 | 40382 ft | 511 kts | 86° |
| 2026-05-01 07:24 | 56.02400 | -39.36671 | 40394 ft | 510 kts | 86° |
| 2026-05-01 07:25 | 56.02842 | -39.24047 | 40401 ft | 509 kts | 86° |
| 2026-05-01 07:25 | 56.03272 | -39.11390 | 40403 ft | 510 kts | 86° |
| 2026-05-01 07:26 | 56.03688 | -38.98709 | 40399 ft | 511 kts | 86° |
| 2026-05-01 07:26 | 56.04091 | -38.86013 | 40396 ft | 512 kts | 86° |
| 2026-05-01 07:27 | 56.04482 | -38.73296 | 40393 ft | 512 kts | 86° |
| 2026-05-01 07:27 | 56.04860 | -38.60572 | 40399 ft | 512 kts | 87° |
| 2026-05-01 07:28 | 56.05225 | -38.47838 | 40383 ft | 512 kts | 86° |
| 2026-05-01 07:28 | 56.05575 | -38.35197 | 40388 ft | 512 kts | 86° |
| 2026-05-01 07:29 | 56.05912 | -38.22503 | 40396 ft | 511 kts | 87° |
| 2026-05-01 07:29 | 56.06237 | -38.09803 | 40391 ft | 511 kts | 87° |
| 2026-05-01 07:30 | 56.06549 | -37.97104 | 40390 ft | 510 kts | 87° |
| 2026-05-01 07:30 | 56.06848 | -37.84407 | 40407 ft | 511 kts | 87° |
| 2026-05-01 07:31 | 56.07134 | -37.71686 | 40397 ft | 512 kts | 87° |
| 2026-05-01 07:32 | 56.07793 | -37.39802 | 40384 ft | 512 kts | 87° |
| 2026-05-01 07:33 | 56.08149 | -37.20696 | 40385 ft | 511 kts | 88° |
| 2026-05-01 07:33 | 56.08475 | -37.01619 | 40383 ft | 511 kts | 88° |
| 2026-05-01 07:34 | 56.08771 | -36.82564 | 40384 ft | 511 kts | 88° |
| 2026-05-01 07:35 | 56.08952 | -36.69848 | 40386 ft | 511 kts | 88° |
| 2026-05-01 07:35 | 56.09120 | -36.57134 | 40385 ft | 511 kts | 88° |
| 2026-05-01 07:36 | 56.09275 | -36.44416 | 40392 ft | 511 kts | 88° |
| 2026-05-01 07:36 | 56.09417 | -36.31664 | 40387 ft | 512 kts | 88° |
| 2026-05-01 07:37 | 56.09606 | -36.12517 | 40385 ft | 513 kts | 88° |
| 2026-05-01 07:37 | 56.09715 | -35.99833 | 40385 ft | 513 kts | 88° |
| 2026-05-01 07:38 | 56.09811 | -35.87065 | 40386 ft | 513 kts | 89° |
| 2026-05-01 07:39 | 56.09931 | -35.67890 | 40374 ft | 514 kts | 89° |
| 2026-05-01 07:39 | 56.10021 | -35.48706 | 40384 ft | 513 kts | 89° |
| 2026-05-01 07:40 | 56.10065 | -35.35940 | 40382 ft | 513 kts | 89° |
| 2026-05-01 07:40 | 56.10095 | -35.23176 | 40375 ft | 512 kts | 89° |
| 2026-05-01 07:41 | 56.10112 | -35.10420 | 40386 ft | 512 kts | 89° |
| 2026-05-01 07:42 | 56.10114 | -34.91286 | 40387 ft | 512 kts | 89° |
| 2026-05-01 07:42 | 56.10098 | -34.78535 | 40370 ft | 512 kts | 89° |
| 2026-05-01 07:43 | 56.10070 | -34.65777 | 40388 ft | 512 kts | 89° |
| 2026-05-01 07:43 | 56.10002 | -34.46638 | 40371 ft | 512 kts | 89° |
| 2026-05-01 07:44 | 56.09866 | -34.21165 | 40372 ft | 511 kts | 89° |
| 2026-05-01 07:45 | 56.09778 | -34.08439 | 40368 ft | 511 kts | 89° |
| 2026-05-01 07:45 | 56.09677 | -33.95720 | 40382 ft | 511 kts | 89° |
| 2026-05-01 07:46 | 56.09564 | -33.83089 | 40384 ft | 511 kts | 90° |
| 2026-05-01 07:47 | 56.09369 | -33.64029 | 40373 ft | 511 kts | 90° |
| 2026-05-01 07:47 | 56.09223 | -33.51314 | 40363 ft | 510 kts | 90° |
| 2026-05-01 07:48 | 56.08980 | -33.32290 | 40363 ft | 509 kts | 90° |
| 2026-05-01 07:48 | 56.08802 | -33.19603 | 40377 ft | 509 kts | 90° |
| 2026-05-01 07:49 | 56.08510 | -33.00604 | 40375 ft | 509 kts | 90° |
| 2026-05-01 07:50 | 56.08299 | -32.87932 | 40358 ft | 509 kts | 90° |
| 2026-05-01 07:50 | 56.07959 | -32.68942 | 40370 ft | 508 kts | 90° |
| 2026-05-01 07:51 | 56.07716 | -32.56297 | 40352 ft | 508 kts | 90° |
| 2026-05-01 07:52 | 56.07330 | -32.37426 | 40358 ft | 508 kts | 90° |
| 2026-05-01 07:52 | 56.07055 | -32.24799 | 40363 ft | 508 kts | 90° |
| 2026-05-01 07:53 | 56.06619 | -32.05874 | 40358 ft | 507 kts | 91° |
| 2026-05-01 07:53 | 56.06313 | -31.93279 | 40358 ft | 507 kts | 91° |
| 2026-05-01 07:55 | 56.05491 | -31.61773 | 40373 ft | 507 kts | 91° |
| 2026-05-01 07:56 | 56.04589 | -31.30306 | 40358 ft | 506 kts | 91° |
| 2026-05-01 07:57 | 56.04011 | -31.11460 | 40354 ft | 506 kts | 91° |
| 2026-05-01 07:58 | 56.03195 | -30.86353 | 40355 ft | 506 kts | 92° |
| 2026-05-01 07:59 | 56.02404 | -30.63387 | 40347 ft | 505 kts | 92° |
| 2026-05-01 08:00 | 56.01019 | -30.25852 | 40346 ft | 504 kts | 92° |
| 2026-05-01 08:01 | 56.00036 | -30.00861 | 40345 ft | 504 kts | 92° |
| 2026-05-01 08:02 | 55.99026 | -29.82227 | 40346 ft | 505 kts | 95° |
| 2026-05-01 08:03 | 55.97848 | -29.63455 | 40339 ft | 505 kts | 95° |
| 2026-05-01 08:03 | 55.96699 | -29.44866 | 40348 ft | 504 kts | 95° |
| 2026-05-01 08:04 | 55.95138 | -29.20025 | 40347 ft | 503 kts | 95° |
| 2026-05-01 08:05 | 55.93933 | -29.01437 | 40347 ft | 503 kts | 95° |
| 2026-05-01 08:06 | 55.92700 | -28.82856 | 40359 ft | 503 kts | 95° |
| 2026-05-01 08:07 | 55.91013 | -28.58119 | 40344 ft | 502 kts | 95° |
| 2026-05-01 08:08 | 55.89720 | -28.39643 | 40341 ft | 501 kts | 95° |
| 2026-05-01 08:09 | 55.87955 | -28.15045 | 40354 ft | 500 kts | 96° |
| 2026-05-01 08:09 | 55.87054 | -28.02759 | 40341 ft | 500 kts | 96° |
| 2026-05-01 08:10 | 55.85217 | -27.78222 | 40339 ft | 499 kts | 96° |
| 2026-05-01 08:11 | 55.83336 | -27.53777 | 40331 ft | 498 kts | 96° |
| 2026-05-01 08:12 | 55.81902 | -27.35557 | 40335 ft | 498 kts | 96° |
| 2026-05-01 08:13 | 55.80436 | -27.17290 | 40329 ft | 497 kts | 96° |
| 2026-05-01 08:13 | 55.78945 | -26.99068 | 40324 ft | 497 kts | 97° |
| 2026-05-01 08:14 | 55.77936 | -26.86918 | 40328 ft | 497 kts | 97° |
| 2026-05-01 08:14 | 55.76914 | -26.74770 | 40333 ft | 497 kts | 97° |
| 2026-05-01 08:15 | 55.75358 | -26.56548 | 40328 ft | 498 kts | 97° |
| 2026-05-01 08:16 | 55.74304 | -26.44402 | 40324 ft | 498 kts | 97° |
| 2026-05-01 08:16 | 55.73239 | -26.32262 | 40328 ft | 498 kts | 97° |
| 2026-05-01 08:17 | 55.72162 | -26.20126 | 40320 ft | 498 kts | 97° |
| 2026-05-01 08:17 | 55.71073 | -26.07997 | 40330 ft | 498 kts | 97° |
| 2026-05-01 08:18 | 55.69971 | -25.95871 | 40322 ft | 499 kts | 97° |
| 2026-05-01 08:19 | 55.67736 | -25.71681 | 40318 ft | 496 kts | 97° |
| 2026-05-01 08:19 | 55.66603 | -25.59623 | 40316 ft | 496 kts | 98° |
| 2026-05-01 08:20 | 55.65461 | -25.47595 | 40317 ft | 495 kts | 98° |
| 2026-05-01 08:20 | 55.64306 | -25.35568 | 40320 ft | 495 kts | 98° |
| 2026-05-01 08:21 | 55.63140 | -25.23545 | 40310 ft | 496 kts | 98° |
| 2026-05-01 08:21 | 55.61961 | -25.11524 | 40299 ft | 496 kts | 98° |
| 2026-05-01 08:22 | 55.60771 | -24.99522 | 40311 ft | 495 kts | 98° |
| 2026-05-01 08:22 | 55.59570 | -24.87533 | 40301 ft | 495 kts | 98° |
| 2026-05-01 08:23 | 55.58359 | -24.75570 | 40298 ft | 494 kts | 98° |
| 2026-05-01 08:23 | 55.57137 | -24.63615 | 40300 ft | 494 kts | 98° |
| 2026-05-01 08:24 | 55.55904 | -24.51673 | 40297 ft | 494 kts | 98° |
| 2026-05-01 08:24 | 55.54660 | -24.39743 | 40303 ft | 495 kts | 99° |
| 2026-05-01 08:25 | 55.53410 | -24.27876 | 40296 ft | 495 kts | 98° |
| 2026-05-01 08:25 | 55.52141 | -24.15946 | 40292 ft | 495 kts | 99° |
| 2026-05-01 08:26 | 55.50860 | -24.04023 | 40302 ft | 494 kts | 99° |
| 2026-05-01 08:26 | 55.49569 | -23.92117 | 40286 ft | 494 kts | 99° |
| 2026-05-01 08:27 | 55.48267 | -23.80233 | 40286 ft | 493 kts | 99° |
| 2026-05-01 08:27 | 55.46955 | -23.68359 | 40292 ft | 493 kts | 99° |
| 2026-05-01 08:28 | 55.45633 | -23.56508 | 40293 ft | 493 kts | 99° |
| 2026-05-01 08:28 | 55.44298 | -23.44653 | 40291 ft | 493 kts | 99° |
| 2026-05-01 08:29 | 55.42951 | -23.32807 | 40288 ft | 493 kts | 99° |
| 2026-05-01 08:29 | 55.41595 | -23.20980 | 40283 ft | 493 kts | 99° |
| 2026-05-01 08:30 | 55.40227 | -23.09165 | 40289 ft | 492 kts | 99° |
| 2026-05-01 08:30 | 55.38849 | -22.97372 | 40284 ft | 492 kts | 99° |
| 2026-05-01 08:31 | 55.37462 | -22.85599 | 40297 ft | 491 kts | 100° |
| 2026-05-01 08:31 | 55.36065 | -22.73846 | 40296 ft | 491 kts | 100° |
| 2026-05-01 08:32 | 55.34655 | -22.62087 | 40284 ft | 491 kts | 100° |
| 2026-05-01 08:32 | 55.33234 | -22.50341 | 40286 ft | 492 kts | 100° |
| 2026-05-01 08:33 | 55.31802 | -22.38607 | 40289 ft | 492 kts | 100° |
| 2026-05-01 08:33 | 55.30358 | -22.26867 | 40280 ft | 492 kts | 100° |
| 2026-05-01 08:34 | 55.28915 | -22.15241 | 40277 ft | 491 kts | 100° |
| 2026-05-01 08:34 | 55.27452 | -22.03553 | 40288 ft | 490 kts | 101° |
| 2026-05-01 08:35 | 55.25978 | -21.91877 | 40281 ft | 490 kts | 100° |
| 2026-05-01 08:35 | 55.24494 | -21.80213 | 40281 ft | 490 kts | 101° |
| 2026-05-01 08:36 | 55.22999 | -21.68556 | 40281 ft | 490 kts | 101° |
| 2026-05-01 08:36 | 55.21493 | -21.56915 | 40276 ft | 490 kts | 101° |
| 2026-05-01 08:37 | 55.19975 | -21.45271 | 40277 ft | 490 kts | 101° |
| 2026-05-01 08:37 | 55.18448 | -21.33659 | 40285 ft | 489 kts | 101° |
| 2026-05-01 08:38 | 55.16916 | -21.22093 | 40271 ft | 487 kts | 101° |
| 2026-05-01 08:38 | 55.15377 | -21.10567 | 40279 ft | 486 kts | 101° |
| 2026-05-01 08:39 | 55.13829 | -20.99070 | 40271 ft | 486 kts | 102° |
| 2026-05-01 08:39 | 55.12272 | -20.87587 | 40276 ft | 486 kts | 102° |
| 2026-05-01 08:40 | 55.09921 | -20.70414 | 40285 ft | 487 kts | 102° |
| 2026-05-01 08:40 | 55.08330 | -20.58909 | 40279 ft | 487 kts | 102° |
| 2026-05-01 08:41 | 55.06734 | -20.47448 | 40265 ft | 485 kts | 102° |
| 2026-05-01 08:41 | 55.05135 | -20.36057 | 40267 ft | 483 kts | 102° |
| 2026-05-01 08:42 | 55.03530 | -20.24700 | 40264 ft | 482 kts | 102° |
| 2026-05-01 08:42 | 55.01918 | -20.13374 | 40267 ft | 481 kts | 102° |
| 2026-05-01 08:43 | 55.00296 | -20.02050 | 40277 ft | 482 kts | 102° |
| 2026-05-01 08:43 | 54.98513 | -19.90782 | 40263 ft | 484 kts | 105° |
| 2026-05-01 08:44 | 54.96487 | -19.79616 | 40268 ft | 484 kts | 106° |
| 2026-05-01 08:44 | 54.94445 | -19.68455 | 40263 ft | 484 kts | 106° |
| 2026-05-01 08:45 | 54.92444 | -19.57365 | 40259 ft | 483 kts | 105° |
| 2026-05-01 08:45 | 54.90441 | -19.46217 | 40258 ft | 483 kts | 105° |
| 2026-05-01 08:46 | 54.88436 | -19.35104 | 40265 ft | 482 kts | 105° |
| 2026-05-01 08:46 | 54.86416 | -19.23981 | 40253 ft | 483 kts | 106° |
| 2026-05-01 08:47 | 54.84386 | -19.12880 | 40254 ft | 483 kts | 105° |
| 2026-05-01 08:47 | 54.82675 | -19.03576 | 40257 ft | 483 kts | 106° |
| 2026-05-01 08:48 | 54.80624 | -18.92484 | 40257 ft | 483 kts | 105° |
| 2026-05-01 08:48 | 54.78565 | -18.81411 | 40248 ft | 482 kts | 106° |
| 2026-05-01 08:49 | 54.76513 | -18.70445 | 40259 ft | 482 kts | 105° |
| 2026-05-01 08:49 | 54.74437 | -18.59416 | 40251 ft | 482 kts | 106° |
| 2026-05-01 08:50 | 54.72353 | -18.48405 | 40247 ft | 481 kts | 107° |
| 2026-05-01 08:50 | 54.70260 | -18.37414 | 40245 ft | 481 kts | 106° |
| 2026-05-01 08:51 | 54.68158 | -18.26435 | 40245 ft | 481 kts | 107° |
| 2026-05-01 08:51 | 54.66048 | -18.15478 | 40236 ft | 481 kts | 106° |
| 2026-05-01 08:52 | 54.63924 | -18.04515 | 40245 ft | 481 kts | 107° |
| 2026-05-01 08:52 | 54.61790 | -17.93561 | 40240 ft | 481 kts | 106° |
| 2026-05-01 08:53 | 54.59646 | -17.82615 | 40238 ft | 482 kts | 107° |
| 2026-05-01 08:53 | 54.57492 | -17.71684 | 40230 ft | 481 kts | 107° |
| 2026-05-01 08:54 | 54.55330 | -17.60770 | 40232 ft | 481 kts | 107° |
| 2026-05-01 08:54 | 54.53156 | -17.49864 | 40231 ft | 481 kts | 107° |
| 2026-05-01 08:55 | 54.50975 | -17.38973 | 40234 ft | 481 kts | 108° |
| 2026-05-01 08:55 | 54.48785 | -17.28107 | 40222 ft | 480 kts | 107° |
| 2026-05-01 08:56 | 54.46592 | -17.17278 | 40221 ft | 479 kts | 108° |
| 2026-05-01 08:56 | 54.44391 | -17.06476 | 40215 ft | 478 kts | 108° |
| 2026-05-01 08:57 | 54.42188 | -16.95717 | 40213 ft | 478 kts | 107° |
| 2026-05-01 08:57 | 54.39988 | -16.85033 | 40210 ft | 478 kts | 108° |
| 2026-05-01 08:58 | 54.37763 | -16.74283 | 40207 ft | 478 kts | 108° |
| 2026-05-01 08:58 | 54.35527 | -16.63538 | 40206 ft | 478 kts | 109° |
| 2026-05-01 08:59 | 54.33284 | -16.52819 | 40195 ft | 478 kts | 109° |
| 2026-05-01 08:59 | 54.31034 | -16.42125 | 40194 ft | 477 kts | 108° |
| 2026-05-01 09:00 | 54.28777 | -16.31454 | 40197 ft | 476 kts | 108° |
| 2026-05-01 09:00 | 54.26513 | -16.20803 | 40195 ft | 476 kts | 108° |
| 2026-05-01 09:01 | 54.24239 | -16.10162 | 40196 ft | 476 kts | 108° |
| 2026-05-01 09:01 | 54.21963 | -15.99567 | 40182 ft | 475 kts | 108° |
| 2026-05-01 09:02 | 54.19680 | -15.88995 | 40192 ft | 474 kts | 108° |
| 2026-05-01 09:02 | 54.17394 | -15.78461 | 40175 ft | 473 kts | 108° |
| 2026-05-01 09:03 | 54.15100 | -15.67942 | 40179 ft | 473 kts | 108° |
| 2026-05-01 09:03 | 54.12796 | -15.57434 | 40161 ft | 473 kts | 108° |
| 2026-05-01 09:04 | 54.10480 | -15.46922 | 40173 ft | 474 kts | 109° |
| 2026-05-01 09:04 | 54.08173 | -15.36504 | 40147 ft | 472 kts | 109° |
| 2026-05-01 09:05 | 54.05832 | -15.25988 | 40156 ft | 472 kts | 110° |
| 2026-05-01 09:05 | 54.03502 | -15.15561 | 40154 ft | 471 kts | 110° |
| 2026-05-01 09:06 | 54.01264 | -15.05150 | 40139 ft | 471 kts | 104° |
| 2026-05-01 09:06 | 54.00079 | -14.94233 | 40143 ft | 470 kts | 94° |
| 2026-05-01 09:07 | 53.99953 | -14.83133 | 40125 ft | 471 kts | 89° |
| 2026-05-01 09:07 | 54.00038 | -14.71980 | 40137 ft | 472 kts | 89° |
| 2026-05-01 09:08 | 54.00087 | -14.60799 | 40128 ft | 473 kts | 89° |
| 2026-05-01 09:08 | 54.00097 | -14.49634 | 40128 ft | 472 kts | 89° |
| 2026-05-01 09:09 | 54.00091 | -14.38484 | 40111 ft | 472 kts | 89° |
| 2026-05-01 09:09 | 54.00077 | -14.27332 | 40105 ft | 473 kts | 90° |
| 2026-05-01 09:10 | 54.00052 | -14.16130 | 40112 ft | 475 kts | 90° |
| 2026-05-01 09:10 | 54.00019 | -14.04881 | 40101 ft | 476 kts | 90° |
| 2026-05-01 09:11 | 53.99938 | -13.93612 | 40216 ft | 476 kts | 91° |
| 2026-05-01 09:11 | 53.99844 | -13.87977 | 40422 ft | 476 kts | 92° |
| 2026-05-01 09:11 | 53.99735 | -13.82351 | 40665 ft | 476 kts | 92° |
| 2026-05-01 09:12 | 53.99623 | -13.76741 | 40913 ft | 475 kts | 92° |
| 2026-05-01 09:12 | 53.99510 | -13.71118 | 40989 ft | 478 kts | 92° |
| 2026-05-01 09:12 | 53.99286 | -13.59811 | 41084 ft | 479 kts | 92° |
| 2026-05-01 09:13 | 53.99062 | -13.48516 | 41076 ft | 477 kts | 92° |
| 2026-05-01 09:13 | 53.98830 | -13.37271 | 41086 ft | 475 kts | 92° |
| 2026-05-01 09:14 | 53.98588 | -13.26050 | 41076 ft | 475 kts | 92° |
| 2026-05-01 09:14 | 53.98334 | -13.14830 | 41075 ft | 477 kts | 94° |
| 2026-05-01 09:15 | 53.98069 | -13.03559 | 41080 ft | 478 kts | 93° |
| 2026-05-01 09:15 | 53.97791 | -12.92244 | 41075 ft | 480 kts | 94° |
| 2026-05-01 09:16 | 53.97503 | -12.80889 | 41071 ft | 482 kts | 94° |
| 2026-05-01 09:17 | 53.97050 | -12.63824 | 41066 ft | 482 kts | 94° |
| 2026-05-01 09:17 | 53.96573 | -12.46840 | 41060 ft | 481 kts | 94° |
| 2026-05-01 09:18 | 53.96073 | -12.29850 | 41059 ft | 480 kts | 94° |
| 2026-05-01 09:19 | 53.95551 | -12.12912 | 41050 ft | 478 kts | 95° |
| 2026-05-01 09:20 | 53.95006 | -11.96036 | 41059 ft | 477 kts | 95° |
| 2026-05-01 09:21 | 53.94243 | -11.73539 | 41053 ft | 478 kts | 95° |
| 2026-05-01 09:21 | 53.93642 | -11.56643 | 41049 ft | 478 kts | 95° |
| 2026-05-01 09:22 | 53.92805 | -11.34158 | 41062 ft | 477 kts | 95° |
| 2026-05-01 09:23 | 53.92151 | -11.17304 | 41063 ft | 477 kts | 96° |
| 2026-05-01 09:24 | 53.91473 | -11.00474 | 41060 ft | 477 kts | 96° |
| 2026-05-01 09:25 | 53.90533 | -10.78049 | 41065 ft | 477 kts | 96° |
| 2026-05-01 09:26 | 53.89805 | -10.61312 | 41070 ft | 477 kts | 96° |
| 2026-05-01 09:26 | 53.89052 | -10.44508 | 41071 ft | 477 kts | 96° |
| 2026-05-01 09:27 | 53.88564 | -10.27643 | 41069 ft | 478 kts | 94° |
| 2026-05-01 09:28 | 53.88348 | -10.16380 | 41081 ft | 478 kts | 94° |
| 2026-05-01 09:28 | 53.88097 | -10.05117 | 41073 ft | 478 kts | 94° |
| 2026-05-01 09:29 | 53.87664 | -9.88236 | 41070 ft | 478 kts | 95° |
| 2026-05-01 09:30 | 53.87202 | -9.71368 | 41073 ft | 478 kts | 95° |
| 2026-05-01 09:30 | 53.86718 | -9.54496 | 41073 ft | 478 kts | 95° |
| 2026-05-01 09:31 | 53.86384 | -9.43256 | 41058 ft | 478 kts | 95° |
| 2026-05-01 09:31 | 53.86035 | -9.31938 | 40165 ft | 485 kts | 96° |
| 2026-05-01 09:32 | 53.85856 | -9.26248 | 39543 ft | 483 kts | 96° |
| 2026-05-01 09:32 | 53.85492 | -9.14893 | 38073 ft | 483 kts | 97° |
| 2026-05-01 09:32 | 53.85307 | -9.09230 | 37306 ft | 480 kts | 97° |
| 2026-05-01 09:33 | 53.85121 | -9.03598 | 36580 ft | 478 kts | 98° |
| 2026-05-01 09:33 | 53.84933 | -8.98004 | 35835 ft | 475 kts | 99° |
| 2026-05-01 09:33 | 53.84555 | -8.86965 | 34679 ft | 463 kts | 100° |
| 2026-05-01 09:34 | 53.84366 | -8.81552 | 34155 ft | 458 kts | 100° |
| 2026-05-01 09:34 | 53.84177 | -8.76204 | 33552 ft | 452 kts | 101° |
| 2026-05-01 09:34 | 53.83793 | -8.65695 | 32467 ft | 442 kts | 101° |
| 2026-05-01 09:35 | 53.83602 | -8.60529 | 31947 ft | 437 kts | 101° |
| 2026-05-01 09:35 | 53.83219 | -8.50374 | 30905 ft | 428 kts | 101° |
| 2026-05-01 09:35 | 53.83091 | -8.47051 | 30571 ft | 425 kts | 101° |
| 2026-05-01 09:36 | 53.82899 | -8.42076 | 30033 ft | 422 kts | 101° |
| 2026-05-01 09:36 | 53.82707 | -8.37152 | 29392 ft | 418 kts | 101° |
| 2026-05-01 09:36 | 53.82514 | -8.32263 | 28851 ft | 414 kts | 101° |
| 2026-05-01 09:36 | 53.82321 | -8.27424 | 28313 ft | 410 kts | 101° |
| 2026-05-01 09:37 | 53.82128 | -8.22625 | 27754 ft | 407 kts | 101° |
| 2026-05-01 09:37 | 53.81741 | -8.13124 | 26662 ft | 402 kts | 101° |
| 2026-05-01 09:37 | 53.81544 | -8.08416 | 26130 ft | 400 kts | 101° |
| 2026-05-01 09:38 | 53.81150 | -7.99062 | 25069 ft | 397 kts | 101° |
| 2026-05-01 09:38 | 53.80951 | -7.94415 | 24548 ft | 396 kts | 101° |
| 2026-05-01 09:38 | 53.80752 | -7.89780 | 24040 ft | 394 kts | 101° |
| 2026-05-01 09:39 | 53.80349 | -7.80539 | 22858 ft | 392 kts | 101° |
| 2026-05-01 09:39 | 53.80149 | -7.75964 | 22344 ft | 390 kts | 101° |
| 2026-05-01 09:39 | 53.79947 | -7.71408 | 21819 ft | 387 kts | 101° |
| 2026-05-01 09:40 | 53.79743 | -7.66874 | 21298 ft | 386 kts | 101° |
| 2026-05-01 09:40 | 53.79333 | -7.57865 | 20285 ft | 382 kts | 101° |
| 2026-05-01 09:40 | 53.79128 | -7.53395 | 19793 ft | 380 kts | 101° |
| 2026-05-01 09:41 | 53.78922 | -7.48948 | 19299 ft | 378 kts | 101° |
| 2026-05-01 09:41 | 53.78508 | -7.40118 | 18318 ft | 376 kts | 101° |
| 2026-05-01 09:41 | 53.78299 | -7.35721 | 17752 ft | 374 kts | 101° |
| 2026-05-01 09:42 | 53.78092 | -7.31403 | 17221 ft | 373 kts | 100° |
| 2026-05-01 09:42 | 53.77835 | -7.27087 | 16904 ft | 363 kts | 103° |
| 2026-05-01 09:42 | 53.77031 | -7.18951 | 16437 ft | 343 kts | 106° |
| 2026-05-01 09:43 | 53.76185 | -7.11065 | 15985 ft | 340 kts | 106° |
| 2026-05-01 09:43 | 53.75773 | -7.07139 | 15766 ft | 339 kts | 106° |
| 2026-05-01 09:43 | 53.75367 | -7.03226 | 15542 ft | 338 kts | 105° |
| 2026-05-01 09:44 | 53.74564 | -6.95424 | 15089 ft | 336 kts | 105° |
| 2026-05-01 09:44 | 53.74164 | -6.91540 | 14865 ft | 335 kts | 105° |
| 2026-05-01 09:44 | 53.73766 | -6.87673 | 14631 ft | 335 kts | 105° |
| 2026-05-01 09:45 | 53.73367 | -6.83803 | 14427 ft | 334 kts | 105° |
| 2026-05-01 09:45 | 53.72569 | -6.76099 | 13946 ft | 332 kts | 105° |
| 2026-05-01 09:45 | 53.72171 | -6.72266 | 13711 ft | 331 kts | 105° |
| 2026-05-01 09:46 | 53.71773 | -6.68447 | 13481 ft | 330 kts | 105° |
| 2026-05-01 09:46 | 53.71374 | -6.64644 | 13256 ft | 328 kts | 105° |
| 2026-05-01 09:46 | 53.70976 | -6.60856 | 13034 ft | 327 kts | 105° |
| 2026-05-01 09:46 | 53.70577 | -6.57084 | 12813 ft | 326 kts | 105° |
| 2026-05-01 09:47 | 53.70176 | -6.53326 | 12596 ft | 325 kts | 105° |
| 2026-05-01 09:47 | 53.69774 | -6.49581 | 12380 ft | 324 kts | 105° |
| 2026-05-01 09:47 | 53.69374 | -6.45844 | 12166 ft | 323 kts | 105° |
| 2026-05-01 09:47 | 53.68975 | -6.42117 | 11946 ft | 322 kts | 105° |
| 2026-05-01 09:48 | 53.68577 | -6.38411 | 11738 ft | 321 kts | 105° |
| 2026-05-01 09:48 | 53.68177 | -6.34707 | 11519 ft | 321 kts | 105° |
| 2026-05-01 09:48 | 53.67776 | -6.31007 | 11289 ft | 320 kts | 105° |
| 2026-05-01 09:48 | 53.67376 | -6.27316 | 11080 ft | 320 kts | 105° |
| 2026-05-01 09:49 | 53.66974 | -6.23633 | 10858 ft | 319 kts | 105° |
| 2026-05-01 09:49 | 53.66579 | -6.20002 | 10665 ft | 311 kts | 105° |
| 2026-05-01 09:49 | 53.66193 | -6.16469 | 10455 ft | 302 kts | 105° |
| 2026-05-01 09:49 | 53.65816 | -6.13036 | 10246 ft | 294 kts | 105° |
| 2026-05-01 09:50 | 53.65448 | -6.09692 | 10043 ft | 286 kts | 105° |
| 2026-05-01 09:50 | 53.65089 | -6.06437 | 9837 ft | 279 kts | 106° |
| 2026-05-01 09:50 | 53.64743 | -6.03311 | 9646 ft | 271 kts | 106° |
| 2026-05-01 09:50 | 53.64487 | -6.01013 | 9525 ft | 269 kts | 106° |
| 2026-05-01 09:51 | 53.64425 | -6.00462 | 9498 ft | 268 kts | 106° |
| 2026-05-01 09:51 | 53.64081 | -5.97377 | 9313 ft | 267 kts | 106° |
| 2026-05-01 09:51 | 53.63781 | -5.94283 | 9133 ft | 268 kts | 102° |
| 2026-05-01 09:51 | 53.63614 | -5.91150 | 8952 ft | 268 kts | 100° |
| 2026-05-01 09:52 | 53.63465 | -5.88020 | 8781 ft | 268 kts | 100° |
| 2026-05-01 09:52 | 53.63305 | -5.84905 | 8594 ft | 267 kts | 101° |
| 2026-05-01 09:52 | 53.63141 | -5.81823 | 8443 ft | 261 kts | 101° |
| 2026-05-01 09:52 | 53.62977 | -5.78818 | 8262 ft | 253 kts | 101° |
| 2026-05-01 09:53 | 53.62598 | -5.76062 | 8162 ft | 234 kts | 126° |
| 2026-05-01 09:53 | 53.61671 | -5.73944 | 8159 ft | 229 kts | 133° |
| 2026-05-01 09:53 | 53.60705 | -5.71766 | 8162 ft | 234 kts | 131° |
| 2026-05-01 09:53 | 53.59746 | -5.69563 | 8129 ft | 232 kts | 131° |
| 2026-05-01 09:54 | 53.58792 | -5.67387 | 8150 ft | 230 kts | 131° |
| 2026-05-01 09:54 | 53.57842 | -5.65229 | 8133 ft | 229 kts | 131° |
| 2026-05-01 09:54 | 53.56810 | -5.63269 | 8134 ft | 222 kts | 148° |
| 2026-05-01 09:54 | 53.55477 | -5.61944 | 8154 ft | 226 kts | 153° |
| 2026-05-01 09:55 | 53.54118 | -5.60586 | 8149 ft | 227 kts | 152° |
| 2026-05-01 09:55 | 53.52779 | -5.59215 | 8131 ft | 224 kts | 152° |
| 2026-05-01 09:55 | 53.51451 | -5.57855 | 8143 ft | 223 kts | 152° |
| 2026-05-01 09:55 | 53.50131 | -5.56506 | 8158 ft | 222 kts | 152° |
| 2026-05-01 09:56 | 53.48787 | -5.55310 | 8136 ft | 217 kts | 165° |
| 2026-05-01 09:56 | 53.47283 | -5.54881 | 8157 ft | 223 kts | 173° |
| 2026-05-01 09:56 | 53.45743 | -5.54488 | 8155 ft | 224 kts | 172° |
| 2026-05-01 09:56 | 53.44216 | -5.54067 | 8142 ft | 221 kts | 172° |
| 2026-05-01 09:57 | 53.42703 | -5.53649 | 8143 ft | 220 kts | 172° |
| 2026-05-01 09:57 | 53.41202 | -5.53236 | 8150 ft | 218 kts | 172° |
| 2026-05-01 09:57 | 53.39708 | -5.52883 | 8138 ft | 214 kts | 180° |
| 2026-05-01 09:57 | 53.38219 | -5.53302 | 8162 ft | 222 kts | 193° |
| 2026-05-01 09:58 | 53.36703 | -5.53919 | 8162 ft | 224 kts | 191° |
| 2026-05-01 09:58 | 53.35189 | -5.54487 | 8143 ft | 222 kts | 191° |
| 2026-05-01 09:58 | 53.33687 | -5.55048 | 8160 ft | 220 kts | 191° |
| 2026-05-01 09:58 | 53.32196 | -5.55606 | 8135 ft | 219 kts | 191° |
| 2026-05-01 09:59 | 53.30714 | -5.56173 | 8125 ft | 216 kts | 194° |
| 2026-05-01 09:59 | 53.29359 | -5.57321 | 8158 ft | 226 kts | 211° |
| 2026-05-01 09:59 | 53.28063 | -5.58844 | 8133 ft | 228 kts | 211° |
| 2026-05-01 09:59 | 53.26757 | -5.60317 | 8132 ft | 225 kts | 210° |
| 2026-05-01 10:00 | 53.25549 | -5.61881 | 8130 ft | 224 kts | 226° |
| 2026-05-01 10:00 | 53.24859 | -5.64301 | 8154 ft | 242 kts | 254° |
| 2026-05-01 10:00 | 53.24930 | -5.67192 | 7910 ft | 263 kts | 282° |
| 2026-05-01 10:00 | 53.25905 | -5.69827 | 7557 ft | 271 kts | 309° |
| 2026-05-01 10:01 | 53.27243 | -5.72040 | 7220 ft | 271 kts | 311° |
| 2026-05-01 10:01 | 53.28577 | -5.74281 | 6866 ft | 273 kts | 310° |
| 2026-05-01 10:01 | 53.29906 | -5.76547 | 6511 ft | 274 kts | 310° |
| 2026-05-01 10:01 | 53.31236 | -5.78833 | 6148 ft | 275 kts | 310° |
| 2026-05-01 10:02 | 53.32541 | -5.81080 | 5800 ft | 265 kts | 310° |
| 2026-05-01 10:02 | 53.33809 | -5.83271 | 5364 ft | 258 kts | 310° |
| 2026-05-01 10:02 | 53.35046 | -5.85413 | 5039 ft | 256 kts | 310° |
| 2026-05-01 10:02 | 53.36283 | -5.87560 | 4695 ft | 257 kts | 310° |
| 2026-05-01 10:03 | 53.37527 | -5.89721 | 4370 ft | 258 kts | 311° |
| 2026-05-01 10:03 | 53.38762 | -5.91866 | 4071 ft | 252 kts | 311° |
| 2026-05-01 10:03 | 53.39946 | -5.93948 | 3725 ft | 241 kts | 306° |
| 2026-05-01 10:03 | 53.40619 | -5.96293 | 3455 ft | 220 kts | 272° |
| 2026-05-01 10:04 | 53.40628 | -5.98757 | 3213 ft | 208 kts | 266° |
| 2026-05-01 10:04 | 53.40718 | -6.01160 | 2995 ft | 205 kts | 271° |
| 2026-05-01 10:04 | 53.40856 | -6.03519 | 2758 ft | 202 kts | 270° |
| 2026-05-01 10:04 | 53.40986 | -6.05863 | 2487 ft | 201 kts | 270° |
| 2026-05-01 10:05 | 53.41112 | -6.08166 | 2206 ft | 194 kts | 270° |
| 2026-05-01 10:05 | 53.41231 | -6.10353 | 1928 ft | 182 kts | 270° |
| 2026-05-01 10:05 | 53.41341 | -6.12361 | 1735 ft | 163 kts | 270° |
| 2026-05-01 10:05 | 53.41438 | -6.14146 | 1482 ft | 148 kts | 270° |
| 2026-05-01 10:06 | 53.41521 | -6.15650 | 1326 ft | 134 kts | 269° |
| 2026-05-01 10:06 | 53.41600 | -6.17155 | 1153 ft | 131 kts | 269° |
| 2026-05-01 10:06 | 53.41683 | -6.18718 | 965 ft | 132 kts | 271° |
| 2026-05-01 10:06 | 53.41767 | -6.20236 | 808 ft | 131 kts | 275° |
| 2026-05-01 10:07 | 53.41848 | -6.21729 | 645 ft | 128 kts | 275° |
| 2026-05-01 10:07 | 53.41927 | -6.23209 | 474 ft | 128 kts | 275° |
| 2026-05-01 10:07 | 53.42005 | -6.24665 | 307 ft | 124 kts | 276° |
| 2026-05-01 10:07 | 53.42079 | -6.26064 | 222 ft | 110 kts | 276° |
| 2026-05-01 10:08 | 53.42130 | -6.26965 | 218 ft | 74 kts | 275° |
| 2026-05-01 10:08 | 53.42160 | -6.27524 | 220 ft | 23 kts | 275° |
| 2026-05-01 10:08 | 53.42192 | -6.27789 | 217 ft | 24 kts | 288° |
| 2026-05-01 10:09 | 53.42263 | -6.28034 | 222 ft | 22 kts | 300° |
| 2026-05-01 10:09 | 53.42327 | -6.28109 | 221 ft | 5 kts | 13° |
| 2026-05-01 10:09 | 53.42360 | -6.27998 | 221 ft | 18 kts | 92° |
| 2026-05-01 10:09 | 53.42348 | -6.27787 | 222 ft | 18 kts | 96° |
| 2026-05-01 10:10 | 53.42336 | -6.27575 | 223 ft | 18 kts | 95° |
| 2026-05-01 10:10 | 53.42324 | -6.27353 | 219 ft | 23 kts | 95° |
| 2026-05-01 10:10 | 53.42291 | -6.26753 | 215 ft | 26 kts | 95° |
| 2026-05-01 10:11 | 53.42274 | -6.26452 | 221 ft | 26 kts | 95° |
| 2026-05-01 10:11 | 53.42257 | -6.26150 | 215 ft | 26 kts | 95° |
| 2026-05-01 10:11 | 53.42241 | -6.25848 | 218 ft | 26 kts | 95° |
| 2026-05-01 10:11 | 53.42224 | -6.25547 | 222 ft | 26 kts | 95° |
| 2026-05-01 10:12 | 53.42208 | -6.25246 | 222 ft | 26 kts | 95° |
| 2026-05-01 10:12 | 53.42215 | -6.25044 | 220 ft | 26 kts | 68° |
| 2026-05-01 10:12 | 53.42363 | -6.24717 | 222 ft | 5 kts | 114° |
| 2026-05-01 10:13 | 53.42333 | -6.24684 | 224 ft | 5 kts | 154° |
| 2026-05-01 10:13 | 53.42300 | -6.24657 | 218 ft | 5 kts | 155° |
| 2026-05-01 10:13 | 53.42283 | -6.24644 | 221 ft | 2 kts | 155° |
| 2026-05-01 10:14 | 53.42281 | -6.24643 | 221 ft | 0 kts | 155° |